Time,TemperatureF,DewpointF,PressureIn,WindDirection,WindDirectionDegrees,WindSpeedMPH,WindSpeedGustMPH,Humidity,HourlyPrecipIn,Conditions,Clouds,dailyrainin,SolarRadiationWatts/m^2,SoftwareType,DateUTC
2013-06-15 00:22:00,51.0,31.0,-100.00,SE,135,3.0,7.0,47,0.00,,,0.00,3.000000,,2013-06-15 08:22:00,
2013-06-15 00:33:00,51.0,31.0,-100.00,SE,135,3.0,7.0,47,0.00,,,0.00,3.000000,,2013-06-15 08:33:00,
2013-06-15 00:42:00,51.0,31.0,-100.00,SE,135,3.0,7.0,47,0.00,,,0.00,3.000000,,2013-06-15 08:42:00,
2013-06-15 00:53:00,51.0,31.0,-100.00,SE,135,3.0,7.0,47,0.00,,,0.00,3.000000,,2013-06-15 08:53:00,
2013-06-15 01:33:00,47.0,33.0,-100.00,ESE,121,1.0,4.0,57,0.00,,,0.00,0.000000,,2013-06-15 09:33:00,
2013-06-15 01:43:00,47.0,33.0,-100.00,ESE,121,1.0,4.0,57,0.00,,,0.00,0.000000,,2013-06-15 09:43:00,
2013-06-15 01:52:00,47.0,33.0,-100.00,ESE,121,1.0,4.0,57,0.00,,,0.00,0.000000,,2013-06-15 09:52:00,
2013-06-15 02:33:00,43.0,33.0,-100.00,SSE,151,1.0,5.0,67,0.00,,,0.00,0.000000,,2013-06-15 10:33:00,
2013-06-15 02:43:00,43.0,33.0,-100.00,SSE,151,1.0,5.0,67,0.00,,,0.00,0.000000,,2013-06-15 10:43:00,
2013-06-15 02:53:00,43.0,33.0,-100.00,SSE,151,1.0,5.0,67,0.00,,,0.00,0.000000,,2013-06-15 10:53:00,
2013-06-15 03:22:00,37.0,30.0,-100.00,South,186,1.0,2.0,75,0.00,,,0.00,0.000000,,2013-06-15 11:22:00,
2013-06-15 03:33:00,37.0,30.0,-100.00,South,186,1.0,2.0,75,0.00,,,0.00,0.000000,,2013-06-15 11:33:00,
2013-06-15 03:53:00,37.0,30.0,-100.00,South,186,1.0,2.0,75,0.00,,,0.00,0.000000,,2013-06-15 11:53:00,
2013-06-15 04:22:00,34.0,27.0,-100.00,South,173,0.0,2.0,76,0.00,,,0.00,2.000000,,2013-06-15 12:22:00,
2013-06-15 04:33:00,34.0,27.0,-100.00,South,173,0.0,2.0,76,0.00,,,0.00,2.000000,,2013-06-15 12:33:00,
2013-06-15 05:22:00,32.0,27.0,-100.00,South,180,0.0,2.0,80,-99.99,,,0.00,10.000000,,2013-06-15 13:22:00,
2013-06-15 05:32:00,32.0,27.0,-100.00,South,180,0.0,2.0,80,-99.99,,,0.00,10.000000,,2013-06-15 13:32:00,
2013-06-15 06:22:00,36.0,29.0,-100.00,SSW,193,0.0,2.0,74,-99.99,,,0.00,51.000000,,2013-06-15 14:22:00,
2013-06-15 06:34:00,36.0,29.0,-100.00,SSW,193,0.0,2.0,74,-99.99,,,0.00,51.000000,,2013-06-15 14:34:00,
2013-06-15 06:43:00,36.0,29.0,-100.00,SSW,193,0.0,2.0,74,-99.99,,,0.00,51.000000,,2013-06-15 14:43:00,
2013-06-15 06:53:00,36.0,29.0,-100.00,SSW,193,0.0,2.0,74,-99.99,,,0.00,51.000000,,2013-06-15 14:53:00,
2013-06-15 07:22:00,53.0,35.0,-100.00,NNE,15,1.0,4.0,50,0.00,,,0.00,207.000000,,2013-06-15 15:22:00,
2013-06-15 07:33:00,53.0,35.0,-100.00,NNE,15,1.0,4.0,50,0.00,,,0.00,207.000000,,2013-06-15 15:33:00,
2013-06-15 07:43:00,53.0,35.0,-100.00,NNE,15,1.0,4.0,50,0.00,,,0.00,207.000000,,2013-06-15 15:43:00,
2013-06-15 07:53:00,53.0,35.0,-100.00,NNE,15,1.0,4.0,50,0.00,,,0.00,207.000000,,2013-06-15 15:53:00,
2013-06-15 08:22:00,60.0,34.0,-100.00,NE,54,1.0,4.0,38,0.00,,,0.00,379.000000,,2013-06-15 16:22:00,
2013-06-15 08:33:00,60.0,34.0,-100.00,NE,54,1.0,4.0,38,0.00,,,0.00,379.000000,,2013-06-15 16:33:00,
2013-06-15 08:43:00,60.0,34.0,-100.00,NE,54,1.0,4.0,38,0.00,,,0.00,379.000000,,2013-06-15 16:43:00,
2013-06-15 08:53:00,60.0,34.0,-100.00,NE,54,1.0,4.0,38,0.00,,,0.00,379.000000,,2013-06-15 16:53:00,
2013-06-15 09:32:00,66.0,37.0,-100.00,NNE,25,1.0,4.0,34,0.00,,,0.00,525.000000,,2013-06-15 17:32:00,
2013-06-15 09:43:00,66.0,37.0,-100.00,NNE,25,1.0,4.0,34,0.00,,,0.00,525.000000,,2013-06-15 17:43:00,
2013-06-15 09:52:00,66.0,37.0,-100.00,NNE,25,1.0,4.0,34,0.00,,,0.00,525.000000,,2013-06-15 17:52:00,
2013-06-15 10:22:00,69.0,35.0,-100.00,East,97,3.0,5.0,28,0.00,,,0.00,664.000000,,2013-06-15 18:22:00,
2013-06-15 10:32:00,69.0,35.0,-100.00,East,97,3.0,5.0,28,0.00,,,0.00,664.000000,,2013-06-15 18:32:00,
2013-06-15 10:43:00,69.0,35.0,-100.00,East,97,3.0,5.0,28,0.00,,,0.00,664.000000,,2013-06-15 18:43:00,
2013-06-15 10:53:00,69.0,35.0,-100.00,East,97,3.0,5.0,28,0.00,,,0.00,664.000000,,2013-06-15 18:53:00,
2013-06-15 11:22:00,71.0,33.0,-100.00,WNW,283,4.0,8.0,25,0.00,,,0.00,783.000000,,2013-06-15 19:22:00,
2013-06-15 11:33:00,71.0,33.0,-100.00,WNW,283,4.0,8.0,25,0.00,,,0.00,783.000000,,2013-06-15 19:33:00,
2013-06-15 11:43:00,71.0,33.0,-100.00,WNW,283,4.0,8.0,25,0.00,,,0.00,783.000000,,2013-06-15 19:43:00,
2013-06-15 11:52:00,71.0,33.0,-100.00,WNW,283,4.0,8.0,25,0.00,,,0.00,783.000000,,2013-06-15 19:52:00,
2013-06-15 12:22:00,73.0,33.0,-100.00,West,263,3.0,9.0,23,0.00,,,0.00,876.000000,,2013-06-15 20:22:00,
2013-06-15 12:33:00,73.0,33.0,-100.00,West,263,3.0,9.0,23,0.00,,,0.00,876.000000,,2013-06-15 20:33:00,
2013-06-15 12:43:00,73.0,33.0,-100.00,West,263,3.0,9.0,23,0.00,,,0.00,876.000000,,2013-06-15 20:43:00,
2013-06-15 12:52:00,73.0,33.0,-100.00,West,263,3.0,9.0,23,0.00,,,0.00,876.000000,,2013-06-15 20:52:00,
2013-06-15 13:22:00,75.0,35.0,-100.00,North,350,4.0,9.0,23,0.00,,,0.00,928.000000,,2013-06-15 21:22:00,
2013-06-15 13:33:00,75.0,35.0,-100.00,North,350,4.0,9.0,23,0.00,,,0.00,928.000000,,2013-06-15 21:33:00,
2013-06-15 13:42:00,75.0,35.0,-100.00,North,350,4.0,9.0,23,0.00,,,0.00,928.000000,,2013-06-15 21:42:00,
2013-06-15 13:52:00,75.0,35.0,-100.00,North,350,4.0,9.0,23,0.00,,,0.00,928.000000,,2013-06-15 21:52:00,
2013-06-15 14:22:00,79.0,33.0,-100.00,SSW,202,3.0,12.0,19,0.00,,,0.00,939.000000,,2013-06-15 22:22:00,
2013-06-15 14:32:00,79.0,33.0,-100.00,SSW,202,3.0,12.0,19,0.00,,,0.00,939.000000,,2013-06-15 22:32:00,
2013-06-15 14:42:00,79.0,33.0,-100.00,SSW,202,3.0,12.0,19,0.00,,,0.00,939.000000,,2013-06-15 22:42:00,
2013-06-15 14:53:00,79.0,33.0,-100.00,SSW,202,3.0,12.0,19,0.00,,,0.00,939.000000,,2013-06-15 22:53:00,
2013-06-15 15:22:00,80.0,34.0,-100.00,WNW,285,3.0,9.0,19,0.00,,,0.00,904.000000,,2013-06-15 23:22:00,
2013-06-15 15:33:00,80.0,34.0,-100.00,WNW,285,3.0,9.0,19,0.00,,,0.00,904.000000,,2013-06-15 23:33:00,
2013-06-15 15:42:00,80.0,34.0,-100.00,WNW,285,3.0,9.0,19,0.00,,,0.00,904.000000,,2013-06-15 23:42:00,
2013-06-15 15:52:00,80.0,34.0,-100.00,WNW,285,3.0,9.0,19,0.00,,,0.00,904.000000,,2013-06-15 23:52:00,
2013-06-15 16:22:00,79.0,30.0,-100.00,NW,317,5.0,11.0,17,0.00,,,0.00,840.000000,,2013-06-16 00:22:00,
2013-06-15 16:33:00,79.0,30.0,-100.00,NW,317,5.0,11.0,17,0.00,,,0.00,840.000000,,2013-06-16 00:33:00,
2013-06-15 16:43:00,79.0,30.0,-100.00,NW,317,5.0,11.0,17,0.00,,,0.00,840.000000,,2013-06-16 00:43:00,
2013-06-15 16:52:00,79.0,30.0,-100.00,NW,317,5.0,11.0,17,0.00,,,0.00,840.000000,,2013-06-16 00:52:00,
2013-06-15 17:33:00,81.0,31.0,-100.00,North,6,3.0,10.0,16,0.00,,,0.00,735.000000,,2013-06-16 01:33:00,
2013-06-15 17:42:00,81.0,31.0,-100.00,North,6,3.0,10.0,16,0.00,,,0.00,735.000000,,2013-06-16 01:42:00,
2013-06-15 17:53:00,81.0,31.0,-100.00,North,6,3.0,10.0,16,0.00,,,0.00,735.000000,,2013-06-16 01:53:00,
2013-06-15 18:22:00,81.0,29.0,-100.00,WSW,247,4.0,9.0,15,0.00,,,0.00,581.000000,,2013-06-16 02:22:00,
2013-06-15 18:33:00,81.0,29.0,-100.00,WSW,247,4.0,9.0,15,0.00,,,0.00,581.000000,,2013-06-16 02:33:00,
2013-06-15 18:43:00,81.0,29.0,-100.00,WSW,247,4.0,9.0,15,0.00,,,0.00,581.000000,,2013-06-16 02:43:00,
2013-06-15 18:53:00,81.0,29.0,-100.00,WSW,247,4.0,9.0,15,0.00,,,0.00,581.000000,,2013-06-16 02:53:00,
2013-06-15 19:22:00,80.0,30.0,-100.00,West,264,3.0,8.0,16,0.00,,,0.00,428.000000,,2013-06-16 03:22:00,
2013-06-15 19:33:00,80.0,30.0,-100.00,West,264,3.0,8.0,16,0.00,,,0.00,428.000000,,2013-06-16 03:33:00,
2013-06-15 19:43:00,80.0,30.0,-100.00,West,264,3.0,8.0,16,0.00,,,0.00,428.000000,,2013-06-16 03:43:00,
2013-06-15 19:53:00,80.0,30.0,-100.00,West,264,3.0,8.0,16,0.00,,,0.00,428.000000,,2013-06-16 03:53:00,
2013-06-15 20:23:00,83.0,32.0,-100.00,NNE,13,2.0,6.0,16,0.00,,,-99.99,357.000000,,2013-06-16 04:23:00,
2013-06-15 20:33:00,83.0,32.0,-100.00,NNE,13,2.0,6.0,16,0.00,,,-99.99,357.000000,,2013-06-16 04:33:00,
2013-06-15 20:42:00,83.0,32.0,-100.00,NNE,13,2.0,6.0,16,0.00,,,-99.99,357.000000,,2013-06-16 04:42:00,
2013-06-15 20:53:00,83.0,32.0,-100.00,NNE,13,2.0,6.0,16,0.00,,,-99.99,357.000000,,2013-06-16 04:53:00,
2013-06-15 21:22:00,78.0,35.0,-100.00,ESE,116,3.0,9.0,21,0.00,,,0.00,205.000000,,2013-06-16 05:22:00,
2013-06-15 21:33:00,78.0,35.0,-100.00,ESE,116,3.0,9.0,21,0.00,,,0.00,205.000000,,2013-06-16 05:33:00,
2013-06-15 21:43:00,78.0,35.0,-100.00,ESE,116,3.0,9.0,21,0.00,,,0.00,205.000000,,2013-06-16 05:43:00,
2013-06-15 21:52:00,78.0,35.0,-100.00,ESE,116,3.0,9.0,21,0.00,,,0.00,205.000000,,2013-06-16 05:52:00,
2013-06-15 22:22:00,67.0,41.0,-100.00,ESE,115,1.0,6.0,38,0.00,,,0.00,74.000000,,2013-06-16 06:22:00,
2013-06-15 22:33:00,67.0,41.0,-100.00,ESE,115,1.0,6.0,38,0.00,,,0.00,74.000000,,2013-06-16 06:33:00,
2013-06-15 22:43:00,67.0,41.0,-100.00,ESE,115,1.0,6.0,38,0.00,,,0.00,74.000000,,2013-06-16 06:43:00,
2013-06-15 22:52:00,67.0,41.0,-100.00,ESE,115,1.0,6.0,38,0.00,,,0.00,74.000000,,2013-06-16 06:52:00,
2013-06-15 23:22:00,59.0,37.0,-100.00,SE,141,1.0,5.0,43,0.00,,,0.00,20.000000,,2013-06-16 07:22:00,
2013-06-15 23:32:00,59.0,37.0,-100.00,SE,141,1.0,5.0,43,0.00,,,0.00,20.000000,,2013-06-16 07:32:00,
2013-06-15 23:43:00,59.0,37.0,-100.00,SE,141,1.0,5.0,43,0.00,,,0.00,20.000000,,2013-06-16 07:43:00,
2013-06-15 23:53:00,59.0,37.0,-100.00,SE,141,1.0,5.0,43,0.00,,,0.00,20.000000,,2013-06-16 07:53:00,